createdAt,value
2023-01-30T00:05:36.824Z,18.90
2023-01-30T00:11:38.697Z,20.70
2023-01-30T00:17:40.568Z,22.63
2023-01-30T00:23:43.104Z,20.13
2023-01-30T00:29:57.586Z,21.83
2023-01-30T00:36:03.786Z,22.93
2023-01-30T00:42:24.661Z,22.43
2023-01-30T00:48:26.955Z,21.80
2023-01-30T00:54:28.901Z,22.10
2023-01-30T01:00:31.297Z,24.53
2023-01-30T01:06:33.253Z,23.27
2023-01-30T01:12:35.139Z,22.63
2023-01-30T01:18:37.123Z,21.00
2023-01-30T01:24:39.149Z,22.50
2023-01-30T01:30:41.025Z,23.40
2023-01-30T01:36:53.255Z,22.17
2023-01-30T01:42:55.998Z,22.10
2023-01-30T01:49:03.040Z,22.07
2023-01-30T01:55:07.553Z,24.40
2023-01-30T02:01:09.735Z,24.30
2023-01-30T02:07:11.746Z,22.90
2023-01-30T02:13:13.668Z,24.30
2023-01-30T02:19:54.373Z,23.97
2023-01-30T02:26:28.664Z,23.47
2023-01-30T02:32:44.829Z,26.43
2023-01-30T02:38:59.809Z,29.33
2023-01-30T02:45:15.752Z,26.30
2023-01-30T02:51:29.940Z,24.40
2023-01-30T02:57:31.819Z,29.13
2023-01-30T03:04:27.518Z,27.70
2023-01-30T03:11:01.199Z,26.37
2023-01-30T03:17:06.479Z,24.37
2023-01-30T03:23:08.774Z,24.67
2023-01-30T03:29:10.719Z,29.73
2023-01-30T03:35:13.033Z,24.87
2023-01-30T03:41:15.307Z,36.23
2023-01-30T03:47:17.224Z,33.03
2023-01-30T03:53:19.157Z,30.53
2023-01-30T03:59:21.090Z,25.87
2023-01-30T04:05:23.755Z,31.30
2023-01-30T04:11:25.689Z,30.57
2023-01-30T04:17:27.561Z,32.77
2023-01-30T04:23:29.478Z,29.93
2023-01-30T04:29:31.365Z,36.30
2023-01-30T04:35:33.235Z,31.27
2023-01-30T04:41:35.167Z,34.90
2023-01-30T04:47:37.073Z,33.93
2023-01-30T04:53:39.070Z,30.63
2023-01-30T04:59:41.032Z,34.67
2023-01-30T05:05:45.891Z,32.50
2023-01-30T05:11:47.761Z,35.40
2023-01-30T05:17:49.621Z,33.30
2023-01-30T05:23:53.295Z,30.93
2023-01-30T05:29:55.172Z,33.80
2023-01-30T05:35:57.117Z,29.40
2023-01-30T05:41:59.107Z,28.47
2023-01-30T05:48:01.696Z,25.07
2023-01-30T05:54:03.860Z,22.37
2023-01-30T06:00:06.874Z,24.23
2023-01-30T06:06:10.179Z,24.93
2023-01-30T06:12:12.115Z,21.40
2023-01-30T06:18:14.002Z,20.83
2023-01-30T06:24:15.999Z,23.27
2023-01-30T06:30:18.264Z,18.90
2023-01-30T06:36:20.178Z,15.27
2023-01-30T06:42:22.064Z,11.37
2023-01-30T06:48:23.948Z,17.67
2023-01-30T06:54:25.855Z,13.90
2023-01-30T07:00:27.740Z,11.10
2023-01-30T07:06:29.640Z,9.67
2023-01-30T07:12:31.585Z,12.07
2023-01-30T07:18:33.458Z,11.47
2023-01-30T07:24:35.379Z,15.70
2023-01-30T07:30:37.362Z,19.50
2023-01-30T07:36:39.337Z,14.43
2023-01-30T07:42:41.636Z,12.67
2023-01-30T07:48:45.393Z,9.87
2023-01-30T07:54:47.308Z,8.70
2023-01-30T08:00:49.221Z,8.13
2023-01-30T08:06:51.409Z,5.70
2023-01-30T08:12:53.311Z,4.20
2023-01-30T08:18:55.294Z,6.10
2023-01-30T08:24:57.201Z,9.17
2023-01-30T08:30:59.203Z,6.93
2023-01-30T08:37:01.341Z,8.23
2023-01-30T08:43:04.126Z,9.53
2023-01-30T08:49:06.286Z,9.97
2023-01-30T08:55:09.540Z,7.53
2023-01-30T09:01:11.880Z,12.43
2023-01-30T09:07:13.809Z,3.03
2023-01-30T09:13:15.749Z,7.20
2023-01-30T09:19:17.633Z,9.30
2023-01-30T09:25:19.545Z,6.07
2023-01-30T09:31:21.537Z,7.43
2023-01-30T09:37:23.530Z,10.77
2023-01-30T09:43:51.228Z,9.07
2023-01-30T09:50:23.698Z,10.47
2023-01-30T09:56:26.197Z,9.63
2023-01-30T10:02:39.364Z,9.40
2023-01-30T10:09:07.221Z,6.67
2023-01-30T10:15:23.069Z,8.60
2023-01-30T10:21:43.418Z,16.40
2023-01-30T10:27:57.175Z,6.33
2023-01-30T10:34:09.435Z,7.83
2023-01-30T10:40:42.749Z,5.73
2023-01-30T10:47:03.405Z,6.80
2023-01-30T10:54:02.201Z,6.37
2023-01-30T11:00:16.849Z,7.20
2023-01-30T11:06:29.339Z,8.50
2023-01-30T11:12:31.466Z,7.93
2023-01-30T11:25:20.386Z,2.70
2023-01-30T11:31:40.454Z,15.90
2023-01-30T11:37:45.027Z,8.77
2023-01-30T11:43:48.325Z,13.63
2023-01-30T11:50:00.262Z,5.97
2023-01-30T11:56:23.068Z,6.73
2023-01-30T12:02:34.327Z,6.73
2023-01-30T12:08:43.037Z,5.10
2023-01-30T12:14:49.386Z,3.10
2023-01-30T12:21:01.054Z,5.60
2023-01-30T12:27:25.478Z,12.40
2023-01-30T12:33:33.289Z,2.53
2023-01-30T12:39:59.743Z,5.13
2023-01-30T12:46:12.856Z,11.73
2023-01-30T12:52:56.306Z,10.07
2023-01-30T12:59:52.806Z,5.23
2023-01-30T13:06:39.831Z,6.57
2023-01-30T13:13:42.339Z,5.67
2023-01-30T13:20:05.371Z,7.63
2023-01-30T13:26:42.440Z,6.93
2023-01-30T13:33:05.461Z,10.60
2023-01-30T13:39:42.581Z,7.50
2023-01-30T13:45:47.199Z,3.00
2023-01-30T13:51:54.229Z,4.77
2023-01-30T13:58:10.459Z,18.13
2023-01-30T14:04:40.184Z,12.27
2023-01-30T14:10:42.146Z,3.67
2023-01-30T14:16:51.385Z,16.03
2023-01-30T14:23:00.502Z,10.07
2023-01-30T14:29:02.396Z,5.50
2023-01-30T14:35:04.259Z,7.50
2023-01-30T14:41:06.860Z,9.60
2023-01-30T14:47:34.572Z,4.87
2023-01-30T14:53:55.325Z,7.80
2023-01-30T15:00:18.401Z,7.93
2023-01-30T15:06:21.155Z,6.63
2023-01-30T15:12:50.752Z,13.73
2023-01-30T15:19:40.725Z,3.77
2023-01-30T15:26:14.280Z,7.13
2023-01-30T15:32:23.076Z,5.50
2023-01-30T15:38:27.021Z,12.33
2023-01-30T15:45:02.887Z,15.80
2023-01-30T15:51:05.170Z,6.33
2023-01-30T15:57:11.818Z,15.07
2023-01-30T16:03:35.242Z,8.70
2023-01-30T16:09:37.133Z,5.70
2023-01-30T16:15:48.451Z,2.67
2023-01-30T16:21:50.411Z,8.13
2023-01-30T16:27:53.682Z,5.90
2023-01-30T16:33:55.591Z,3.73
2023-01-30T16:40:31.869Z,4.43
2023-01-30T16:46:47.366Z,9.20
2023-01-30T16:52:54.835Z,8.50
2023-01-30T16:59:00.459Z,9.70
2023-01-30T17:05:21.828Z,11.07
2023-01-30T17:11:41.554Z,9.03
2023-01-30T17:17:44.581Z,17.73
2023-01-30T17:24:05.274Z,13.13
2023-01-30T17:30:18.739Z,6.80
2023-01-30T17:36:30.101Z,14.47
2023-01-30T17:42:31.989Z,6.63
2023-01-30T17:48:33.866Z,16.30
2023-01-30T17:54:35.799Z,10.67
2023-01-30T18:00:37.701Z,9.50
2023-01-30T18:06:43.122Z,13.20
2023-01-30T18:12:47.916Z,10.23
2023-01-30T18:18:50.310Z,14.33
2023-01-30T18:24:52.213Z,9.17
2023-01-30T18:30:54.149Z,5.83
2023-01-30T18:36:56.069Z,14.20
2023-01-30T18:42:58.133Z,8.67
2023-01-30T18:49:00.247Z,8.87
2023-01-30T18:55:02.251Z,8.47
2023-01-30T19:01:17.899Z,10.77
2023-01-30T19:07:19.846Z,28.07
2023-01-30T19:13:33.949Z,14.40
2023-01-30T19:19:37.081Z,11.37
2023-01-30T19:25:38.981Z,7.20
2023-01-30T19:31:41.692Z,11.83
2023-01-30T19:37:43.702Z,14.47
2023-01-30T19:43:46.161Z,9.17
2023-01-30T19:49:48.288Z,13.00
2023-01-30T19:55:51.625Z,12.90
2023-01-30T20:01:53.621Z,14.40
2023-01-30T20:07:55.594Z,7.43
2023-01-30T20:13:58.787Z,17.10
2023-01-30T20:20:09.696Z,6.00
2023-01-30T20:26:19.661Z,33.03
2023-01-30T20:32:21.680Z,13.57
2023-01-30T20:38:23.569Z,11.80
2023-01-30T20:44:25.863Z,13.93
2023-01-30T20:50:28.277Z,13.23
2023-01-30T20:56:45.888Z,16.40
2023-01-30T21:02:51.620Z,10.43
2023-01-30T21:08:53.565Z,11.17
2023-01-30T21:14:55.451Z,19.50
2023-01-30T21:20:57.477Z,16.57
2023-01-30T21:26:59.405Z,11.13
2023-01-30T21:33:01.298Z,14.83
2023-01-30T21:39:22.660Z,5.47
2023-01-30T21:45:24.678Z,11.83
2023-01-30T21:51:26.624Z,15.30
2023-01-30T21:57:28.560Z,9.87
2023-01-30T22:03:30.572Z,13.47
2023-01-30T22:09:32.466Z,23.27
2023-01-30T22:15:34.432Z,21.20
2023-01-30T22:21:40.130Z,19.77
2023-01-30T22:27:42.203Z,14.37
2023-01-30T22:33:51.164Z,12.90
2023-01-30T22:39:53.036Z,23.40
2023-01-30T22:46:04.000Z,5.47
2023-01-30T22:52:05.910Z,16.40
2023-01-30T22:58:07.777Z,11.53
2023-01-30T23:04:22.418Z,5.20
2023-01-30T23:10:24.373Z,8.20
2023-01-30T23:16:28.112Z,10.60
2023-01-30T23:22:30.077Z,9.97
2023-01-30T23:28:32.385Z,14.70
2023-01-30T23:34:34.376Z,13.93
2023-01-30T23:40:36.523Z,23.73
2023-01-30T23:46:42.060Z,11.13
2023-01-30T23:52:44.602Z,5.23
2023-01-30T23:58:47.124Z,14.87
